createdAt,value
2022-09-05T04:16:52.183Z,12.73
2022-09-05T04:22:09.894Z,12.76
2022-09-05T04:27:58.319Z,12.85
2022-09-05T04:33:36.621Z,12.94
2022-09-05T04:38:42.651Z,13.02
2022-09-05T04:43:52.757Z,13.02
2022-09-05T04:49:07.154Z,13.01
2022-09-05T04:54:18.351Z,13.03
2022-09-05T05:01:39.365Z,13.13
2022-09-05T05:06:13.104Z,13.30
2022-09-05T05:13:33.565Z,13.50
2022-09-05T05:18:14.226Z,13.61
2022-09-05T05:21:29.255Z,13.70
2022-09-05T05:26:41.199Z,13.80
2022-09-05T05:31:55.864Z,13.83
2022-09-05T05:37:16.098Z,13.97
2022-09-05T05:42:24.062Z,14.06
2022-09-05T05:47:41.837Z,14.24
2022-09-05T05:52:56.273Z,14.31
2022-09-05T05:58:07.504Z,14.50
2022-09-05T06:03:37.428Z,14.78
2022-09-05T06:11:47.761Z,15.16
2022-09-05T06:15:09.153Z,15.49
2022-09-05T06:22:07.728Z,15.76
2022-09-05T10:19:14.354Z,43.05
2022-09-05T10:24:42.318Z,45.59
2022-09-05T10:30:03.578Z,43.19
2022-09-05T10:35:22.572Z,45.92
2022-09-05T10:40:28.823Z,46.28
2022-09-05T10:45:43.322Z,44.52
2022-09-05T10:50:51.366Z,43.60
2022-09-05T10:56:06.758Z,43.53
2022-09-05T11:02:28.440Z,43.14
2022-09-05T11:06:55.773Z,43.20
2022-09-05T11:12:14.682Z,40.74
2022-09-05T11:17:29.484Z,39.94
2022-09-05T11:22:39.420Z,39.14
2022-09-05T11:27:46.551Z,38.90
2022-09-05T11:39:47.981Z,37.89
2022-09-05T11:40:07.556Z,37.39
2022-09-05T11:44:25.953Z,36.81
2022-09-05T11:49:42.947Z,33.64
2022-09-05T11:55:00.152Z,32.33
2022-09-05T12:00:31.849Z,33.09
2022-09-05T12:06:24.622Z,33.40
2022-09-05T12:11:29.734Z,31.99
2022-09-05T12:16:56.490Z,30.96
2022-09-05T12:22:16.161Z,28.91
2022-09-05T12:27:45.001Z,29.25
2022-09-05T12:36:01.579Z,30.20
2022-09-05T12:40:55.264Z,28.65
2022-09-05T12:44:44.489Z,28.45
2022-09-05T12:50:03.492Z,27.98
2022-09-05T12:55:17.122Z,27.56
2022-09-05T13:03:12.782Z,28.24
2022-09-05T13:05:46.531Z,28.45
2022-09-05T13:14:46.181Z,28.02
2022-09-05T13:16:24.873Z,28.30
2022-09-05T13:21:30.243Z,27.38
2022-09-05T13:43:41.678Z,26.67
2022-09-05T13:54:51.717Z,27.26
2022-09-05T14:00:06.512Z,28.18
2022-09-05T14:05:25.381Z,28.98
2022-09-05T14:11:02.151Z,29.04
2022-09-05T14:16:17.051Z,28.71
2022-09-05T14:21:20.701Z,28.48
2022-09-05T14:26:48.936Z,27.93
2022-09-05T14:37:35.093Z,27.52
2022-09-05T14:38:09.154Z,27.49
2022-09-05T14:43:34.516Z,27.18
2022-09-05T14:49:07.755Z,26.57
2022-09-05T15:02:53.745Z,25.36
2022-09-05T15:05:27.852Z,25.11
2022-09-05T15:12:16.943Z,25.13
2022-09-05T15:16:09.871Z,25.02
2022-09-05T15:21:34.575Z,25.05
2022-09-05T15:26:48.142Z,24.89
2022-09-05T15:32:18.580Z,24.55
2022-09-05T15:37:30.121Z,24.20
2022-09-05T15:42:35.833Z,24.11
2022-09-05T15:47:43.733Z,23.95
2022-09-05T15:52:55.441Z,23.78
2022-09-05T15:58:04.854Z,23.64
2022-09-05T16:06:42.773Z,23.63
2022-09-05T16:10:50.407Z,23.56
2022-09-05T16:14:15.351Z,23.50
2022-09-05T16:23:19.711Z,23.47
2022-09-05T16:25:23.748Z,23.54
2022-09-05T16:30:37.708Z,23.42
2022-09-05T16:35:56.949Z,23.23
2022-09-05T16:41:05.707Z,23.06
2022-09-05T16:46:21.205Z,22.96
2022-09-05T16:51:36.390Z,22.92
2022-09-05T16:56:58.349Z,22.86
2022-09-05T17:02:07.268Z,22.77
2022-09-05T17:07:31.053Z,22.73
2022-09-05T17:12:37.504Z,22.47
2022-09-05T17:18:21.676Z,22.30
2022-09-05T17:26:55.460Z,22.16
2022-09-05T17:29:30.535Z,21.98
2022-09-05T17:34:15.330Z,21.85
2022-09-05T17:39:49.943Z,21.83
2022-09-05T17:44:55.138Z,21.73
2022-09-05T17:50:15.643Z,21.63
2022-09-05T17:55:18.422Z,21.47
2022-09-05T18:00:42.525Z,21.23
2022-09-05T18:06:01.149Z,20.90
2022-09-05T18:11:07.262Z,20.61
2022-09-05T18:22:06.378Z,20.34
2022-09-05T18:28:03.037Z,20.18
2022-09-05T18:32:54.200Z,19.91
2022-09-05T18:38:51.419Z,19.66
2022-09-05T18:44:20.103Z,19.57
2022-09-05T18:50:24.241Z,19.43
2022-09-05T18:56:09.811Z,19.32
2022-09-05T19:00:35.140Z,19.21
2022-09-05T19:06:35.966Z,19.05
2022-09-05T19:11:53.158Z,18.92
2022-09-05T19:17:24.816Z,18.79
2022-09-05T19:23:08.732Z,18.69
2022-09-05T19:30:00.448Z,18.58
2022-09-05T19:37:13.890Z,18.37
2022-09-05T19:39:49.401Z,18.29
2022-09-05T19:47:55.607Z,18.20
2022-09-05T19:50:08.220Z,18.14
2022-09-05T19:55:23.005Z,18.03
2022-09-05T20:00:27.938Z,17.87
2022-09-05T20:05:30.845Z,17.79
2022-09-05T20:10:35.511Z,17.70
2022-09-05T20:15:38.282Z,17.66
2022-09-05T20:20:54.470Z,17.57
2022-09-05T20:25:58.088Z,17.48
2022-09-05T20:31:08.290Z,17.44
2022-09-05T20:43:07.989Z,17.33
2022-09-05T20:43:35.846Z,17.17
2022-09-05T20:51:03.975Z,17.07
2022-09-05T20:54:17.299Z,16.99
2022-09-05T20:58:14.748Z,16.90
2022-09-05T21:03:28.684Z,16.74
2022-09-05T21:08:35.332Z,16.65
2022-09-05T21:13:46.153Z,16.63
2022-09-05T21:18:55.159Z,16.60
2022-09-05T21:24:05.282Z,16.61
2022-09-05T21:29:32.749Z,16.58
2022-09-05T21:34:45.130Z,16.50
2022-09-05T21:40:00.379Z,16.50
